createdAt,value
2018-02-16T00:00:51.278Z,53.40
2018-02-16T00:01:51.268Z,55.40
2018-02-16T00:02:51.259Z,54.00
2018-02-16T00:03:51.252Z,52.90
2018-02-16T00:04:51.244Z,50.70
2018-02-16T00:05:51.234Z,53.10
2018-02-16T00:06:51.224Z,52.10
2018-02-16T00:07:51.219Z,50.50
2018-02-16T00:08:51.209Z,51.80
2018-02-16T00:09:51.199Z,52.80
2018-02-16T00:10:51.195Z,51.10
2018-02-16T00:11:51.184Z,50.30
2018-02-16T00:12:51.175Z,55.60
2018-02-16T00:13:51.160Z,51.90
2018-02-16T00:14:51.160Z,51.10
2018-02-16T00:15:51.148Z,50.80
2018-02-16T00:16:51.141Z,55.00
2018-02-16T00:17:51.134Z,56.60
2018-02-16T00:18:51.123Z,56.40
2018-02-16T00:19:51.115Z,55.10
2018-02-16T00:20:51.103Z,55.20
2018-02-16T00:21:51.096Z,52.20
2018-02-16T00:22:51.091Z,50.60
2018-02-16T00:23:51.081Z,51.90
2018-02-16T00:24:51.069Z,52.70
2018-02-16T00:25:51.062Z,50.50
2018-02-16T00:26:51.056Z,52.70
2018-02-16T00:27:51.046Z,53.40
2018-02-16T00:28:51.036Z,55.80
2018-02-16T00:29:51.026Z,49.50
2018-02-16T00:30:51.021Z,52.70
2018-02-16T00:31:51.010Z,52.30
2018-02-16T00:32:51.002Z,51.30
2018-02-16T00:33:50.989Z,49.40
2018-02-16T00:34:50.985Z,53.60
2018-02-16T00:35:50.977Z,53.20
2018-02-16T00:36:50.969Z,52.80
2018-02-16T00:37:50.960Z,53.60
2018-02-16T00:38:50.951Z,50.90
2018-02-16T00:39:50.945Z,51.20
2018-02-16T00:40:50.933Z,52.40
2018-02-16T00:41:50.927Z,52.40
2018-02-16T00:42:50.918Z,51.50
2018-02-16T00:43:50.907Z,51.00
2018-02-16T00:44:50.908Z,49.60
2018-02-16T00:45:50.895Z,52.70
2018-02-16T00:46:50.883Z,50.40
2018-02-16T00:47:50.877Z,53.70
2018-02-16T00:48:50.867Z,55.10
2018-02-16T00:49:50.859Z,54.50
2018-02-16T00:50:50.849Z,55.40
2018-02-16T00:51:50.841Z,57.80
2018-02-16T00:52:50.834Z,54.80
2018-02-16T00:53:50.824Z,55.70
2018-02-16T00:54:50.816Z,55.30
2018-02-16T00:55:50.806Z,55.90
2018-02-16T00:56:50.800Z,54.90
2018-02-16T00:57:50.791Z,60.00
2018-02-16T00:58:50.782Z,58.30
2018-02-16T00:59:50.776Z,57.80
2018-02-16T01:00:50.761Z,59.90
2018-02-16T01:01:50.755Z,60.10
2018-02-16T01:02:50.748Z,59.70
2018-02-16T01:03:50.738Z,60.10
2018-02-16T01:04:50.732Z,59.90
2018-02-16T01:05:50.722Z,59.10
2018-02-16T01:06:50.715Z,59.70
2018-02-16T01:07:50.702Z,59.70
2018-02-16T01:08:50.696Z,62.30
2018-02-16T01:09:50.686Z,64.00
2018-02-16T01:10:50.680Z,60.90
2018-02-16T01:11:50.677Z,66.50
2018-02-16T01:12:50.664Z,63.10
2018-02-16T01:13:50.656Z,63.40
2018-02-16T01:14:50.645Z,61.20
2018-02-16T01:15:50.637Z,63.60
2018-02-16T01:16:50.631Z,67.10
2018-02-16T01:17:50.619Z,67.60
2018-02-16T01:18:50.611Z,65.00
2018-02-16T01:19:50.604Z,62.00
2018-02-16T01:20:50.597Z,64.70
2018-02-16T01:21:50.585Z,65.40
2018-02-16T01:22:50.577Z,68.70
2018-02-16T01:23:50.567Z,67.00
2018-02-16T01:24:50.560Z,64.20
2018-02-16T01:25:50.552Z,67.10
2018-02-16T01:26:50.542Z,71.00
2018-02-16T01:27:50.533Z,71.30
2018-02-16T01:28:50.526Z,69.10
2018-02-16T01:29:50.520Z,74.90
2018-02-16T01:30:50.513Z,74.90
2018-02-16T01:31:50.504Z,73.70
2018-02-16T01:32:50.494Z,74.50
2018-02-16T01:33:50.486Z,75.60
2018-02-16T01:34:50.472Z,78.90
2018-02-16T01:35:50.467Z,81.30
2018-02-16T01:36:50.457Z,75.50
2018-02-16T01:37:50.449Z,74.10
2018-02-16T01:38:50.448Z,70.30
2018-02-16T01:39:50.434Z,71.60
2018-02-16T01:40:50.425Z,72.00
2018-02-16T01:41:50.414Z,70.50
2018-02-16T01:42:50.406Z,71.00
2018-02-16T01:43:50.400Z,67.20
2018-02-16T01:44:50.391Z,71.90
2018-02-16T01:45:50.380Z,72.50
2018-02-16T01:46:50.374Z,67.30
2018-02-16T01:47:50.365Z,66.30
2018-02-16T01:48:50.356Z,66.80
2018-02-16T01:49:50.349Z,66.00
2018-02-16T01:50:50.342Z,63.70
2018-02-16T01:51:50.335Z,67.80
2018-02-16T01:52:50.322Z,69.80
2018-02-16T01:53:50.313Z,68.30
2018-02-16T01:54:50.300Z,67.50
2018-02-16T01:55:50.297Z,67.50
2018-02-16T01:56:50.286Z,66.60
2018-02-16T01:57:50.279Z,66.00
2018-02-16T01:58:50.273Z,66.90
2018-02-16T01:59:50.263Z,71.60
2018-02-16T02:00:50.255Z,69.00
2018-02-16T02:01:50.245Z,68.30
2018-02-16T02:02:50.236Z,68.90
2018-02-16T02:03:50.227Z,69.30
2018-02-16T02:04:50.219Z,70.60
2018-02-16T02:05:50.217Z,70.80
2018-02-16T02:06:50.203Z,72.20
2018-02-16T02:07:50.194Z,66.90
2018-02-16T02:08:50.184Z,70.80
2018-02-16T02:09:50.176Z,70.90
2018-02-16T02:10:50.167Z,69.20
2018-02-16T02:11:50.162Z,69.80
2018-02-16T02:12:50.153Z,67.10
2018-02-16T02:13:50.145Z,65.00
2018-02-16T02:14:50.134Z,67.10
2018-02-16T02:15:50.124Z,65.50
2018-02-16T02:16:50.118Z,67.80
2018-02-16T02:17:50.111Z,66.50
2018-02-16T02:18:50.102Z,65.10
2018-02-16T02:19:50.094Z,69.70
2018-02-16T02:20:50.083Z,66.20
2018-02-16T02:21:50.073Z,64.30
2018-02-16T02:22:50.066Z,67.60
2018-02-16T02:23:50.058Z,63.80
2018-02-16T02:24:50.052Z,68.70
2018-02-16T02:25:50.039Z,64.60
2018-02-16T02:26:50.035Z,69.20
2018-02-16T02:27:50.023Z,68.50
2018-02-16T02:28:50.015Z,70.10
2018-02-16T02:29:50.005Z,70.60
2018-02-16T02:30:49.997Z,68.60
2018-02-16T02:31:50.057Z,67.00
2018-02-16T02:32:49.981Z,64.20
2018-02-16T02:33:49.970Z,56.00
2018-02-16T02:34:49.963Z,69.70
2018-02-16T02:35:49.953Z,72.00
2018-02-16T02:36:49.946Z,73.10
2018-02-16T02:37:49.944Z,70.70
2018-02-16T02:38:49.927Z,69.00
2018-02-16T02:39:49.918Z,71.40
2018-02-16T02:40:49.909Z,69.30
2018-02-16T02:41:49.903Z,70.30
2018-02-16T02:42:49.892Z,67.90
2018-02-16T02:43:49.886Z,68.10
2018-02-16T02:44:49.875Z,67.50
2018-02-16T02:45:49.867Z,72.20
2018-02-16T02:46:49.855Z,70.50
2018-02-16T02:47:49.848Z,63.40
2018-02-16T02:48:49.839Z,67.50
2018-02-16T02:49:49.828Z,70.30
2018-02-16T02:50:49.822Z,72.40
2018-02-16T02:51:49.812Z,72.40
2018-02-16T02:52:49.804Z,73.20
2018-02-16T02:53:49.794Z,71.80
2018-02-16T02:54:49.780Z,71.60
2018-02-16T02:55:49.777Z,73.50
2018-02-16T02:56:49.768Z,74.00
2018-02-16T02:57:49.757Z,69.40
2018-02-16T02:58:49.752Z,71.70
2018-02-16T02:59:49.747Z,65.50
2018-02-16T03:00:49.736Z,66.90
2018-02-16T03:01:49.722Z,68.70
2018-02-16T03:02:49.714Z,67.50
2018-02-16T03:03:49.705Z,68.50
2018-02-16T03:04:49.695Z,67.70
2018-02-16T03:05:49.687Z,68.90
2018-02-16T03:06:49.676Z,71.50
2018-02-16T03:07:49.669Z,75.00
2018-02-16T03:08:49.660Z,75.10
2018-02-16T03:09:49.650Z,68.60
2018-02-16T03:10:49.643Z,72.70
2018-02-16T03:11:49.635Z,65.40
2018-02-16T03:12:49.624Z,70.40
2018-02-16T03:13:49.614Z,68.30
2018-02-16T03:14:49.607Z,67.00
2018-02-16T03:15:49.598Z,67.20
2018-02-16T03:16:49.587Z,65.20
2018-02-16T03:17:49.578Z,64.40
2018-02-16T03:18:49.572Z,66.50
2018-02-16T03:19:49.564Z,69.60
2018-02-16T03:20:49.554Z,67.50
2018-02-16T03:21:49.544Z,67.80
2018-02-16T03:22:49.535Z,65.30
2018-02-16T03:23:49.528Z,68.30
2018-02-16T03:24:49.518Z,68.50
2018-02-16T03:25:49.508Z,71.10
2018-02-16T03:26:49.500Z,70.40
2018-02-16T03:27:49.493Z,69.50
2018-02-16T03:28:49.482Z,70.20
2018-02-16T03:29:49.473Z,70.30
2018-02-16T03:30:49.465Z,71.10
2018-02-16T03:31:49.456Z,67.60
2018-02-16T03:32:49.448Z,62.60
2018-02-16T03:33:49.438Z,65.60
2018-02-16T03:34:49.430Z,66.20
2018-02-16T03:35:49.421Z,67.50
2018-02-16T03:36:49.412Z,67.10
2018-02-16T03:37:49.405Z,66.90
2018-02-16T03:38:49.394Z,67.80
2018-02-16T03:39:49.389Z,70.50
2018-02-16T03:40:49.378Z,71.60
2018-02-16T03:41:49.369Z,70.20
2018-02-16T03:42:49.357Z,71.40
2018-02-16T03:43:49.351Z,73.40
2018-02-16T03:44:49.344Z,70.80
2018-02-16T03:45:49.375Z,70.60
2018-02-16T03:46:49.326Z,80.00
2018-02-16T03:47:49.316Z,69.80
2018-02-16T03:48:49.307Z,71.60
2018-02-16T03:49:49.299Z,75.40
2018-02-16T03:50:49.291Z,71.60
2018-02-16T03:51:49.284Z,72.60
2018-02-16T03:52:49.274Z,69.70
2018-02-16T03:53:49.266Z,69.50
2018-02-16T03:54:49.257Z,75.40
2018-02-16T03:55:49.249Z,73.70
2018-02-16T03:56:49.237Z,73.80
2018-02-16T03:57:49.230Z,77.10
2018-02-16T03:58:49.227Z,69.20
2018-02-16T03:59:49.214Z,73.30
2018-02-16T04:00:49.206Z,72.80
2018-02-16T04:01:49.196Z,75.60
2018-02-16T04:02:49.186Z,75.60
2018-02-16T04:03:49.181Z,74.90
2018-02-16T04:04:49.171Z,77.50
2018-02-16T04:05:49.163Z,77.70
2018-02-16T04:06:49.153Z,76.80
2018-02-16T04:07:49.141Z,77.40
2018-02-16T04:08:49.135Z,77.20
2018-02-16T04:09:49.127Z,76.70
2018-02-16T04:10:49.123Z,80.50
2018-02-16T04:11:49.110Z,79.60
2018-02-16T04:12:49.101Z,84.20
2018-02-16T04:13:49.092Z,89.90
2018-02-16T04:14:49.082Z,85.70
2018-02-16T04:15:49.076Z,92.30
2018-02-16T04:16:49.067Z,91.40
2018-02-16T04:17:49.059Z,89.20
2018-02-16T04:18:49.055Z,96.70
2018-02-16T04:19:49.043Z,102.50
2018-02-16T04:20:49.035Z,97.30
2018-02-16T04:21:49.024Z,103.80
2018-02-16T04:22:49.016Z,102.00
2018-02-16T04:23:49.006Z,104.80
2018-02-16T04:24:49.004Z,106.90
2018-02-16T04:25:48.992Z,110.50
2018-02-16T04:26:48.982Z,113.60
2018-02-16T04:27:48.970Z,118.50
2018-02-16T04:28:48.965Z,118.40
2018-02-16T04:29:48.958Z,124.10
2018-02-16T04:30:48.950Z,113.70
2018-02-16T04:31:48.943Z,124.70
2018-02-16T04:32:48.929Z,133.70
2018-02-16T04:33:48.922Z,128.70
2018-02-16T04:34:48.913Z,133.40
2018-02-16T04:35:48.906Z,146.90
2018-02-16T04:36:48.899Z,147.00
2018-02-16T04:37:48.888Z,148.00
2018-02-16T04:38:48.879Z,148.90
2018-02-16T04:39:48.872Z,148.80
2018-02-16T04:40:48.863Z,142.00
2018-02-16T04:41:48.853Z,152.70
2018-02-16T04:42:48.845Z,154.20
2018-02-16T04:43:48.838Z,158.80
2018-02-16T04:44:48.828Z,163.30
2018-02-16T04:45:48.820Z,175.20
2018-02-16T04:46:48.808Z,163.70
2018-02-16T04:47:48.799Z,177.90
2018-02-16T04:48:48.794Z,173.60
2018-02-16T04:49:48.785Z,163.30
2018-02-16T04:50:48.779Z,177.10
2018-02-16T04:51:48.771Z,188.00
2018-02-16T04:52:48.764Z,182.00
2018-02-16T04:53:48.748Z,184.30
2018-02-16T04:54:48.739Z,178.70
2018-02-16T04:55:48.744Z,174.20
2018-02-16T04:56:48.724Z,179.30
2018-02-16T04:57:48.714Z,170.70
2018-02-16T04:58:48.705Z,175.70
2018-02-16T04:59:48.697Z,168.50
2018-02-16T05:00:48.689Z,163.80
2018-02-16T05:01:48.680Z,165.20
2018-02-16T05:02:48.672Z,161.90
2018-02-16T05:03:48.663Z,157.80
2018-02-16T05:04:48.655Z,158.60
2018-02-16T05:05:48.644Z,162.90
2018-02-16T05:06:48.636Z,158.20
2018-02-16T05:07:48.624Z,169.40
2018-02-16T05:08:48.617Z,162.30
2018-02-16T05:09:48.621Z,160.80
2018-02-16T05:10:48.602Z,163.30
2018-02-16T05:11:48.595Z,157.60
2018-02-16T05:12:48.583Z,167.10
2018-02-16T05:13:48.573Z,173.40
2018-02-16T05:14:48.568Z,176.50
2018-02-16T05:15:48.554Z,178.30
2018-02-16T05:16:48.548Z,185.90
2018-02-16T05:17:48.539Z,170.60
2018-02-16T05:18:48.529Z,182.40
2018-02-16T05:19:48.521Z,188.50
2018-02-16T05:20:48.508Z,188.10
2018-02-16T05:21:48.504Z,192.30
2018-02-16T05:22:48.493Z,175.90
2018-02-16T05:23:48.485Z,166.50
2018-02-16T05:24:48.479Z,175.70
2018-02-16T05:25:48.470Z,183.80
2018-02-16T05:26:48.460Z,182.30
2018-02-16T05:27:48.448Z,176.90
2018-02-16T05:28:48.440Z,189.20
2018-02-16T05:29:48.433Z,183.20
2018-02-16T05:30:48.429Z,179.20
2018-02-16T05:31:48.415Z,190.20
2018-02-16T05:32:48.405Z,184.00
2018-02-16T05:33:48.395Z,188.90
2018-02-16T05:34:48.388Z,187.90
2018-02-16T05:35:48.380Z,188.00
2018-02-16T05:36:48.372Z,176.00
2018-02-16T05:37:48.362Z,194.90
2018-02-16T05:38:48.352Z,189.00
2018-02-16T05:39:48.344Z,192.10
2018-02-16T05:40:48.334Z,188.80
2018-02-16T05:41:48.329Z,184.50
2018-02-16T05:42:48.317Z,186.70
2018-02-16T05:43:48.308Z,173.40
2018-02-16T05:44:48.306Z,183.10
2018-02-16T05:45:48.290Z,179.40
2018-02-16T05:46:48.283Z,183.50
2018-02-16T05:47:48.273Z,188.80
2018-02-16T05:48:48.264Z,186.40
2018-02-16T05:49:48.255Z,194.40
2018-02-16T05:50:48.246Z,197.30
2018-02-16T05:51:48.237Z,197.60
2018-02-16T05:52:48.229Z,196.40
2018-02-16T05:53:48.220Z,202.50
2018-02-16T05:54:48.210Z,184.30
2018-02-16T05:55:48.201Z,195.50
2018-02-16T05:56:48.191Z,187.70
2018-02-16T05:57:48.188Z,195.80
2018-02-16T05:58:48.181Z,189.10
2018-02-16T05:59:48.169Z,205.20
2018-02-16T06:00:48.156Z,204.50
2018-02-16T06:01:48.146Z,196.10
2018-02-16T06:02:48.138Z,190.30
2018-02-16T06:03:48.130Z,211.00
2018-02-16T06:04:48.124Z,202.60
2018-02-16T06:05:48.114Z,210.80
2018-02-16T06:06:48.099Z,212.40
2018-02-16T06:07:48.093Z,211.10
2018-02-16T06:08:48.095Z,196.80
2018-02-16T06:09:48.074Z,202.20
2018-02-16T06:10:48.071Z,209.90
2018-02-16T06:11:48.058Z,199.40
2018-02-16T06:12:48.047Z,205.00
2018-02-16T06:13:48.037Z,196.00
2018-02-16T06:14:48.031Z,210.50
2018-02-16T06:15:48.020Z,197.00
2018-02-16T06:16:48.014Z,209.50
2018-02-16T06:17:48.002Z,214.20
2018-02-16T06:18:47.995Z,202.50
2018-02-16T06:19:47.980Z,192.00
2018-02-16T06:20:47.975Z,188.20
2018-02-16T06:21:47.978Z,207.20
2018-02-16T06:22:47.955Z,191.40
2018-02-16T06:23:47.947Z,193.40
2018-02-16T06:24:47.941Z,185.10
2018-02-16T06:25:47.947Z,197.60
2018-02-16T06:26:47.919Z,194.30
2018-02-16T06:27:47.911Z,185.50
2018-02-16T06:28:47.904Z,193.40
2018-02-16T06:29:47.891Z,193.50
2018-02-16T06:30:47.881Z,207.20
2018-02-16T06:31:47.874Z,210.70
2018-02-16T06:32:47.861Z,200.10
2018-02-16T06:33:47.854Z,209.90
2018-02-16T06:34:47.846Z,193.10
2018-02-16T06:35:47.836Z,204.30
2018-02-16T06:36:47.828Z,196.10
2018-02-16T06:37:47.818Z,200.00
2018-02-16T06:38:47.809Z,190.20
2018-02-16T06:39:47.800Z,190.80
2018-02-16T06:40:47.789Z,190.40
2018-02-16T06:41:47.779Z,187.70
2018-02-16T06:42:47.773Z,185.70
2018-02-16T06:43:47.761Z,176.20
2018-02-16T06:44:47.752Z,177.00
2018-02-16T06:45:47.743Z,167.20
2018-02-16T06:46:47.734Z,176.10
2018-02-16T06:47:47.723Z,185.70
2018-02-16T06:48:47.717Z,178.10
2018-02-16T06:49:47.704Z,185.10
2018-02-16T06:50:47.697Z,185.60
2018-02-16T06:51:47.688Z,176.70
2018-02-16T06:52:47.676Z,185.00
2018-02-16T06:53:47.668Z,183.20
2018-02-16T06:54:47.659Z,183.80
2018-02-16T06:55:47.655Z,161.10
2018-02-16T06:56:47.642Z,155.70
2018-02-16T06:57:47.630Z,146.70
2018-02-16T06:58:47.623Z,137.80
2018-02-16T06:59:47.613Z,138.00
2018-02-16T07:00:47.605Z,133.40
2018-02-16T07:01:47.597Z,133.60
2018-02-16T07:02:47.586Z,134.40
2018-02-16T07:03:47.576Z,130.60
2018-02-16T07:04:47.567Z,124.30
2018-02-16T07:05:47.602Z,130.70
2018-02-16T07:06:47.550Z,118.70
2018-02-16T07:07:47.537Z,120.50
2018-02-16T07:08:47.530Z,125.00
2018-02-16T07:09:47.524Z,120.30
2018-02-16T07:10:47.512Z,114.30
2018-02-16T07:11:47.504Z,111.80
2018-02-16T07:12:47.494Z,112.90
2018-02-16T07:13:47.484Z,114.10
2018-02-16T07:14:47.474Z,112.70
2018-02-16T07:15:47.466Z,110.30
2018-02-16T07:16:47.456Z,103.00
2018-02-16T07:17:47.444Z,94.60
2018-02-16T07:18:47.438Z,95.50
2018-02-16T07:19:47.429Z,95.80
2018-02-16T07:20:47.422Z,97.20
2018-02-16T07:21:47.414Z,95.50
2018-02-16T07:22:47.406Z,89.70
2018-02-16T07:23:47.393Z,83.10
2018-02-16T07:24:47.416Z,80.50
2018-02-16T07:25:47.375Z,83.60
2018-02-16T07:26:47.379Z,80.40
2018-02-16T07:27:47.361Z,76.60
2018-02-16T07:28:47.352Z,77.00
2018-02-16T07:29:47.339Z,76.60
2018-02-16T07:30:47.329Z,72.10
2018-02-16T07:31:47.650Z,70.10
2018-02-16T07:32:47.317Z,69.40
2018-02-16T07:33:47.306Z,73.00
2018-02-16T07:34:47.296Z,67.50
2018-02-16T07:35:48.046Z,60.60
2018-02-16T07:36:47.278Z,69.10
2018-02-16T07:37:47.272Z,67.00
2018-02-16T07:38:47.267Z,66.20
2018-02-16T07:39:47.252Z,63.10
2018-02-16T07:40:47.266Z,62.20
2018-02-16T07:41:47.236Z,64.50
2018-02-16T07:42:47.227Z,62.00
2018-02-16T07:43:47.219Z,60.90
2018-02-16T07:44:47.744Z,62.10
2018-02-16T07:45:47.208Z,62.80
2018-02-16T07:46:47.190Z,54.00
2018-02-16T07:47:47.184Z,57.10
2018-02-16T07:48:47.177Z,53.50
2018-02-16T07:49:47.165Z,54.70
2018-02-16T07:50:47.156Z,56.70
2018-02-16T07:51:47.150Z,56.10
2018-02-16T07:52:47.141Z,56.90
2018-02-16T07:53:47.132Z,52.80
2018-02-16T07:54:47.129Z,56.20
2018-02-16T07:55:47.126Z,50.50
2018-02-16T07:56:47.107Z,48.60
2018-02-16T07:57:47.098Z,47.70
2018-02-16T07:58:47.089Z,49.50
2018-02-16T07:59:47.081Z,51.00
2018-02-16T08:00:47.071Z,47.10
2018-02-16T08:01:47.068Z,49.50
2018-02-16T08:02:47.056Z,45.60
2018-02-16T08:03:47.041Z,47.10
2018-02-16T08:04:47.042Z,42.00
2018-02-16T08:05:47.029Z,42.00
2018-02-16T08:06:47.023Z,44.00
2018-02-16T08:07:47.011Z,45.90
2018-02-16T08:08:47.005Z,44.80
2018-02-16T08:09:46.995Z,44.90
2018-02-16T08:10:47.046Z,42.10
2018-02-16T08:11:46.978Z,43.80
2018-02-16T08:12:46.971Z,43.30
2018-02-16T08:13:46.963Z,43.10
2018-02-16T08:14:47.369Z,41.80
2018-02-16T08:15:47.011Z,42.00
2018-02-16T08:16:46.938Z,41.80
2018-02-16T08:17:46.928Z,39.80
2018-02-16T08:18:46.920Z,39.60
2018-02-16T08:19:46.912Z,41.30
2018-02-16T08:20:46.905Z,37.60
2018-02-16T08:21:46.905Z,39.80
2018-02-16T08:22:46.887Z,40.90
2018-02-16T08:23:46.879Z,38.60
2018-02-16T08:24:46.870Z,38.10
2018-02-16T08:25:46.865Z,35.40
2018-02-16T08:26:46.861Z,34.00
2018-02-16T08:27:46.844Z,41.40
2018-02-16T08:28:46.838Z,37.50
2018-02-16T08:29:47.099Z,36.90
2018-02-16T08:30:46.820Z,35.70
2018-02-16T08:31:46.816Z,37.40
2018-02-16T08:32:46.809Z,35.60
2018-02-16T08:33:46.797Z,39.40
2018-02-16T08:34:46.788Z,37.60
2018-02-16T08:35:46.780Z,36.70
2018-02-16T08:36:46.771Z,36.40
2018-02-16T08:37:46.762Z,32.30
2018-02-16T08:38:46.755Z,34.60
2018-02-16T08:39:46.746Z,33.10
2018-02-16T08:40:46.738Z,34.00
2018-02-16T08:41:46.736Z,30.40
2018-02-16T08:42:46.742Z,32.00
2018-02-16T08:43:46.714Z,33.30
2018-02-16T08:44:46.705Z,31.50
2018-02-16T08:45:46.698Z,31.40
2018-02-16T08:46:46.690Z,31.50
2018-02-16T08:47:46.681Z,31.10
2018-02-16T08:48:46.675Z,31.10
2018-02-16T08:49:46.704Z,32.00
2018-02-16T08:50:46.659Z,31.80
2018-02-16T08:51:46.646Z,33.40
2018-02-16T08:52:46.655Z,30.70
2018-02-16T08:53:46.633Z,29.20
2018-02-16T08:54:46.625Z,29.70
2018-02-16T08:55:46.620Z,26.70
2018-02-16T08:56:46.614Z,30.60
2018-02-16T08:57:46.604Z,29.60
2018-02-16T08:58:46.606Z,31.00
2018-02-16T08:59:46.592Z,29.30
2018-02-16T09:00:46.576Z,28.10
2018-02-16T09:01:46.570Z,28.10
2018-02-16T09:02:46.562Z,28.30
2018-02-16T09:03:46.553Z,27.50
2018-02-16T09:04:46.551Z,29.50
2018-02-16T09:05:46.538Z,28.30
2018-02-16T09:06:46.530Z,26.60
2018-02-16T09:07:46.521Z,26.70
2018-02-16T09:08:46.515Z,29.20
2018-02-16T09:09:46.506Z,28.20
2018-02-16T09:10:46.498Z,29.50
2018-02-16T09:11:46.490Z,25.20
2018-02-16T09:12:46.483Z,27.00
2018-02-16T09:13:46.473Z,27.80
2018-02-16T09:14:46.464Z,26.50
2018-02-16T09:15:46.460Z,25.70
2018-02-16T09:16:46.451Z,25.50
2018-02-16T09:17:46.445Z,26.90
2018-02-16T09:18:46.433Z,29.20
2018-02-16T09:19:46.442Z,26.60
2018-02-16T09:20:46.419Z,27.70
2018-02-16T09:21:46.426Z,27.70
2018-02-16T09:22:46.403Z,26.80
2018-02-16T09:23:46.396Z,27.60
2018-02-16T09:24:46.389Z,25.30
2018-02-16T09:25:46.384Z,27.50
2018-02-16T09:26:46.391Z,25.20
2018-02-16T09:27:46.369Z,24.30
2018-02-16T09:28:46.356Z,27.80
2018-02-16T09:29:46.348Z,24.60
2018-02-16T09:30:46.342Z,23.20
2018-02-16T09:31:46.334Z,26.00
2018-02-16T09:32:46.327Z,24.30
2018-02-16T09:33:46.316Z,25.50
2018-02-16T09:34:46.314Z,24.30
2018-02-16T09:35:46.302Z,22.40
2018-02-16T09:36:46.296Z,23.40
2018-02-16T09:37:46.288Z,25.50
2018-02-16T09:38:46.281Z,27.20
2018-02-16T09:39:46.275Z,24.90
2018-02-16T09:40:46.266Z,25.90
2018-02-16T09:41:46.261Z,25.10
2018-02-16T09:42:46.249Z,24.70
2018-02-16T09:43:46.242Z,25.70
2018-02-16T09:44:46.235Z,23.20
2018-02-16T09:45:46.231Z,23.60
2018-02-16T09:46:46.217Z,24.40
2018-02-16T09:47:46.216Z,23.60
2018-02-16T09:48:46.205Z,24.70
2018-02-16T09:49:46.193Z,24.90
2018-02-16T09:50:46.191Z,26.50
2018-02-16T09:51:46.181Z,25.10
2018-02-16T09:52:46.177Z,23.80
2018-02-16T09:53:46.167Z,23.50
2018-02-16T09:54:46.163Z,25.10
2018-02-16T09:55:46.157Z,24.90
2018-02-16T09:56:46.146Z,22.20
2018-02-16T09:57:46.139Z,21.20
2018-02-16T09:58:46.133Z,25.40
2018-02-16T09:59:46.157Z,24.00
2018-02-16T10:00:46.115Z,24.10
2018-02-16T10:01:46.109Z,23.20
2018-02-16T10:02:46.101Z,24.10
2018-02-16T10:03:46.095Z,23.70
2018-02-16T10:04:46.089Z,23.40
2018-02-16T10:05:46.082Z,23.50
2018-02-16T10:06:46.073Z,24.60
2018-02-16T10:07:46.069Z,24.70
2018-02-16T10:08:46.060Z,23.00
2018-02-16T10:09:46.051Z,25.10
2018-02-16T10:10:46.043Z,23.60
2018-02-16T10:11:46.038Z,25.60
2018-02-16T10:12:46.069Z,24.40
2018-02-16T10:13:46.025Z,24.70
2018-02-16T10:14:46.020Z,24.00
2018-02-16T10:15:46.013Z,23.30
2018-02-16T10:16:46.005Z,26.60
2018-02-16T10:17:45.995Z,22.10
2018-02-16T10:18:45.991Z,24.30
2018-02-16T10:19:45.981Z,22.60
2018-02-16T10:20:45.986Z,25.20
2018-02-16T10:21:45.967Z,22.10
2018-02-16T10:22:45.957Z,23.30
2018-02-16T10:23:45.953Z,26.20
2018-02-16T10:24:45.947Z,24.00
2018-02-16T10:25:45.940Z,22.10
2018-02-16T10:26:45.933Z,23.60
2018-02-16T10:27:45.928Z,25.50
2018-02-16T10:28:45.921Z,26.30
2018-02-16T10:29:45.940Z,25.40
2018-02-16T10:30:45.906Z,23.10
2018-02-16T10:31:45.901Z,29.20
2018-02-16T10:32:45.895Z,24.60
2018-02-16T10:33:45.896Z,22.90
2018-02-16T10:34:45.880Z,24.50
2018-02-16T10:35:45.873Z,25.20
2018-02-16T10:36:45.870Z,25.20
2018-02-16T10:37:45.864Z,24.30
2018-02-16T10:38:45.854Z,23.30
2018-02-16T10:39:45.850Z,24.40
2018-02-16T10:40:45.842Z,25.30
2018-02-16T10:41:45.838Z,23.80
2018-02-16T10:42:45.825Z,26.40
2018-02-16T10:43:45.819Z,24.60
2018-02-16T10:44:45.816Z,24.50
2018-02-16T10:45:45.808Z,24.90
2018-02-16T10:46:45.800Z,26.80
2018-02-16T10:47:45.795Z,27.90
2018-02-16T10:48:45.796Z,26.60
2018-02-16T10:49:45.781Z,25.80
2018-02-16T10:50:45.775Z,28.10
2018-02-16T10:51:45.768Z,26.90
2018-02-16T10:52:45.764Z,28.20
2018-02-16T10:53:45.755Z,28.30
2018-02-16T10:54:45.748Z,25.90
2018-02-16T10:55:45.742Z,24.70
2018-02-16T10:56:45.741Z,27.20
2018-02-16T10:57:45.728Z,25.90
2018-02-16T10:58:45.720Z,25.90
2018-02-16T10:59:45.715Z,29.40
2018-02-16T11:00:45.710Z,27.50
2018-02-16T11:01:45.705Z,26.70
2018-02-16T11:02:45.695Z,25.00
2018-02-16T11:03:45.689Z,26.00
2018-02-16T11:04:45.683Z,26.40
2018-02-16T11:05:45.675Z,25.80
2018-02-16T11:06:45.669Z,24.10
2018-02-16T11:07:45.663Z,25.90
2018-02-16T11:08:45.656Z,27.20
2018-02-16T11:09:45.649Z,25.80
2018-02-16T11:10:45.641Z,25.10
2018-02-16T11:11:45.635Z,29.00
2018-02-16T11:12:45.760Z,24.30
2018-02-16T11:13:45.667Z,27.90
2018-02-16T11:14:45.617Z,25.20
2018-02-16T11:15:45.635Z,28.20
2018-02-16T11:16:45.894Z,23.70
2018-02-16T11:17:45.830Z,25.50
2018-02-16T11:18:45.590Z,23.60
2018-02-16T11:19:45.590Z,26.40
2018-02-16T11:20:45.580Z,25.60
2018-02-16T11:21:45.577Z,23.00
2018-02-16T11:22:45.567Z,26.20
2018-02-16T11:23:45.684Z,25.00
2018-02-16T11:24:45.556Z,26.30
2018-02-16T11:25:45.550Z,26.60
2018-02-16T11:26:45.544Z,24.70
2018-02-16T11:27:45.536Z,28.30
2018-02-16T11:28:45.531Z,28.00
2018-02-16T11:29:45.525Z,29.60
2018-02-16T11:30:45.519Z,26.00
2018-02-16T11:31:45.533Z,26.60
2018-02-16T11:32:45.508Z,28.10
2018-02-16T11:33:45.501Z,25.50
2018-02-16T11:34:45.495Z,25.80
2018-02-16T11:35:45.619Z,29.20
2018-02-16T11:36:45.479Z,28.00
2018-02-16T11:37:45.473Z,27.00
2018-02-16T11:38:45.472Z,26.20
2018-02-16T11:39:45.467Z,27.90
2018-02-16T11:40:45.467Z,24.70
2018-02-16T11:41:45.454Z,26.60
2018-02-16T11:42:45.452Z,24.10
2018-02-16T11:43:45.442Z,27.80
2018-02-16T11:44:45.438Z,25.70
2018-02-16T11:45:45.429Z,26.60
2018-02-16T11:46:45.426Z,27.20
2018-02-16T11:47:45.422Z,28.00
2018-02-16T11:48:45.419Z,27.40
2018-02-16T11:49:45.410Z,25.50
2018-02-16T11:50:45.404Z,29.30
2018-02-16T11:51:45.641Z,26.10
2018-02-16T11:52:45.395Z,27.90
2018-02-16T11:53:45.388Z,26.10
2018-02-16T11:54:45.383Z,29.20
2018-02-16T11:55:45.379Z,29.70
2018-02-16T11:56:45.370Z,28.70
2018-02-16T11:57:45.365Z,31.10
2018-02-16T11:58:45.361Z,27.50
2018-02-16T11:59:45.353Z,28.40
2018-02-16T12:00:45.349Z,29.10
2018-02-16T12:01:45.341Z,27.50
2018-02-16T12:02:45.337Z,29.70
2018-02-16T12:03:45.332Z,27.60
2018-02-16T12:04:45.332Z,27.10
2018-02-16T12:05:45.326Z,28.90
2018-02-16T12:06:45.313Z,32.30
2018-02-16T12:07:45.310Z,28.80
2018-02-16T12:08:45.305Z,29.60
2018-02-16T12:09:45.298Z,26.90
2018-02-16T12:10:45.292Z,28.60
2018-02-16T12:11:45.304Z,28.60
2018-02-16T12:12:45.280Z,27.40
2018-02-16T12:13:45.274Z,22.70
2018-02-16T12:14:45.270Z,27.90
2018-02-16T12:15:45.266Z,27.30
2018-02-16T12:16:45.257Z,28.00
2018-02-16T12:17:45.256Z,28.90
2018-02-16T12:18:45.245Z,29.50
2018-02-16T12:19:45.239Z,27.30
2018-02-16T12:20:45.233Z,27.40
2018-02-16T12:21:45.236Z,27.70
2018-02-16T12:22:45.221Z,26.80
2018-02-16T12:23:45.213Z,22.10
2018-02-16T12:24:45.209Z,26.70
2018-02-16T12:25:45.204Z,29.00
2018-02-16T12:26:45.197Z,27.90
2018-02-16T12:27:45.193Z,27.40
2018-02-16T12:28:45.186Z,26.40
2018-02-16T12:29:45.181Z,25.70
2018-02-16T12:30:45.172Z,28.90
2018-02-16T12:31:45.167Z,27.50
2018-02-16T12:32:45.161Z,26.40
2018-02-16T12:33:45.165Z,27.80
2018-02-16T12:34:45.150Z,26.90
2018-02-16T12:35:45.143Z,24.40
2018-02-16T12:36:45.138Z,26.80
2018-02-16T12:37:45.132Z,25.50
2018-02-16T12:38:45.125Z,25.90
2018-02-16T12:39:45.119Z,27.10
2018-02-16T12:40:45.113Z,26.10
2018-02-16T12:41:45.107Z,28.40
2018-02-16T12:42:45.101Z,26.20
2018-02-16T12:43:45.097Z,25.60
2018-02-16T12:44:45.090Z,26.40
2018-02-16T12:45:45.081Z,26.50
2018-02-16T12:46:45.080Z,27.30